createdAt,value
2023-12-19T00:01:48.444Z,12.04
2023-12-19T00:04:16.684Z,12.03
2023-12-19T00:06:44.285Z,12.02
2023-12-19T00:09:11.523Z,12.00
2023-12-19T00:11:38.983Z,11.97
2023-12-19T00:14:07.563Z,11.95
2023-12-19T00:16:39.847Z,11.94
2023-12-19T00:19:09.648Z,11.93
2023-12-19T00:21:37.539Z,11.92
2023-12-19T00:24:06.006Z,11.92
2023-12-19T00:26:33.481Z,11.94
2023-12-19T00:29:01.113Z,11.94
2023-12-19T00:31:33.291Z,11.95
2023-12-19T00:34:00.966Z,11.95
2023-12-19T00:36:28.538Z,11.95
2023-12-19T00:38:56.264Z,11.93
2023-12-19T00:41:23.922Z,11.90
2023-12-19T00:43:53.926Z,11.88
2023-12-19T00:46:21.506Z,11.87
2023-12-19T00:48:49.604Z,11.86
2023-12-19T00:51:20.161Z,11.84
2023-12-19T00:53:48.286Z,11.84
2023-12-19T00:56:15.740Z,11.82
2023-12-19T00:58:44.943Z,11.79
2023-12-19T01:01:12.366Z,11.79
2023-12-19T01:03:40.367Z,11.79
2023-12-19T01:06:08.659Z,11.78
2023-12-19T01:08:36.800Z,11.81
2023-12-19T01:11:04.511Z,11.81
2023-12-19T01:13:31.930Z,11.80
2023-12-19T01:15:59.626Z,11.80
2023-12-19T01:18:27.413Z,11.79
2023-12-19T01:20:54.912Z,11.79
2023-12-19T01:23:22.838Z,11.78
2023-12-19T01:25:50.964Z,11.78
2023-12-19T01:28:18.842Z,11.78
2023-12-19T01:30:46.562Z,11.77
2023-12-19T01:33:14.270Z,11.76
2023-12-19T01:35:42.146Z,11.79
2023-12-19T01:38:10.610Z,11.82
2023-12-19T01:40:38.150Z,11.82
2023-12-19T01:43:16.881Z,11.83
2023-12-19T01:45:44.337Z,11.84
2023-12-19T01:48:12.721Z,11.89
2023-12-19T01:50:40.777Z,11.90
2023-12-19T01:53:09.607Z,11.91
2023-12-19T01:55:38.959Z,11.92
2023-12-19T01:58:08.152Z,11.94
2023-12-19T02:00:37.539Z,11.95
2023-12-19T02:03:06.184Z,11.96
2023-12-19T02:05:39.710Z,11.96
2023-12-19T02:08:07.648Z,11.98
2023-12-19T02:10:35.090Z,11.98
2023-12-19T02:13:02.696Z,11.98
2023-12-19T02:15:30.311Z,11.98
2023-12-19T02:17:57.786Z,11.97
2023-12-19T02:20:25.347Z,11.97
2023-12-19T02:22:53.178Z,11.98
2023-12-19T02:25:22.103Z,11.98
2023-12-19T02:27:49.648Z,11.96
2023-12-19T02:30:17.385Z,11.97
2023-12-19T02:32:47.363Z,11.98
2023-12-19T02:35:15.312Z,11.98
2023-12-19T02:37:43.073Z,11.97
2023-12-19T02:40:12.461Z,11.97
2023-12-19T02:42:44.566Z,11.96
2023-12-19T02:45:13.308Z,11.96
2023-12-19T02:47:40.985Z,11.94
2023-12-19T02:50:09.224Z,11.93
2023-12-19T02:52:36.820Z,11.95
2023-12-19T02:55:05.860Z,11.97
2023-12-19T02:57:33.379Z,11.98
2023-12-19T03:00:01.320Z,11.96
2023-12-19T03:02:28.796Z,11.94
2023-12-19T03:04:57.059Z,11.92
2023-12-19T03:07:25.124Z,11.90
2023-12-19T03:09:52.711Z,11.87
2023-12-19T03:12:20.246Z,11.87
2023-12-19T03:14:47.911Z,11.86
2023-12-19T03:17:15.408Z,11.86
2023-12-19T03:19:43.445Z,11.85
2023-12-19T03:22:10.904Z,11.83
2023-12-19T03:24:38.900Z,11.82
2023-12-19T03:27:06.237Z,11.82
2023-12-19T03:29:34.601Z,11.83
2023-12-19T03:32:02.243Z,11.83
2023-12-19T03:34:29.802Z,11.80
2023-12-19T03:36:58.519Z,11.79
2023-12-19T03:39:26.206Z,11.79
2023-12-19T03:42:10.771Z,11.79
2023-12-19T03:44:43.988Z,11.78
2023-12-19T03:47:15.177Z,11.80
2023-12-19T03:49:42.862Z,11.81
2023-12-19T03:52:10.817Z,11.80
2023-12-19T03:54:38.642Z,11.79
2023-12-19T03:57:07.134Z,11.77
2023-12-19T03:59:34.804Z,11.75
2023-12-19T04:02:02.767Z,11.73
2023-12-19T04:04:30.339Z,11.72
2023-12-19T04:06:58.160Z,11.70
2023-12-19T04:09:25.756Z,11.64
2023-12-19T04:11:53.007Z,11.57
2023-12-19T04:14:20.567Z,11.52
2023-12-19T04:16:47.807Z,11.48
2023-12-19T04:19:16.367Z,11.45
2023-12-19T04:21:45.272Z,11.43
2023-12-19T04:24:12.853Z,11.40
2023-12-19T04:26:40.911Z,11.33
2023-12-19T04:29:08.366Z,11.26
2023-12-19T04:31:36.257Z,11.19
2023-12-19T04:34:04.374Z,11.14
2023-12-19T04:36:33.249Z,11.09
2023-12-19T04:39:01.072Z,11.04
2023-12-19T04:41:28.529Z,11.02
2023-12-19T04:43:55.895Z,10.99
2023-12-19T04:46:23.651Z,10.98
2023-12-19T04:48:51.254Z,10.98
2023-12-19T04:51:23.823Z,10.96
2023-12-19T04:53:52.933Z,10.93
2023-12-19T04:56:20.871Z,10.91
2023-12-19T04:58:49.087Z,10.89
2023-12-19T05:01:18.061Z,10.89
2023-12-19T05:03:45.870Z,10.89
2023-12-19T05:06:19.940Z,10.90
2023-12-19T05:08:47.697Z,10.94
2023-12-19T05:11:15.838Z,10.98
2023-12-19T05:13:43.840Z,11.02
2023-12-19T05:16:15.671Z,11.05
2023-12-19T05:18:45.095Z,11.09
2023-12-19T05:21:14.076Z,11.11
2023-12-19T05:23:42.394Z,11.12
2023-12-19T05:26:10.821Z,11.12
2023-12-19T05:28:40.858Z,11.11
2023-12-19T05:31:12.177Z,11.11
2023-12-19T05:33:40.211Z,11.11
2023-12-19T05:36:08.639Z,11.10
2023-12-19T05:38:36.492Z,11.09
2023-12-19T05:41:05.095Z,11.08
2023-12-19T05:43:33.252Z,11.08
2023-12-19T05:46:04.642Z,11.09
2023-12-19T05:48:32.293Z,11.08
2023-12-19T05:51:01.672Z,11.08
2023-12-19T05:53:29.563Z,11.07
2023-12-19T05:55:57.114Z,11.08
2023-12-19T05:58:24.885Z,11.08
2023-12-19T06:00:52.430Z,11.11
2023-12-19T06:03:20.213Z,11.13
2023-12-19T06:05:48.329Z,11.15
2023-12-19T06:08:18.937Z,11.15
2023-12-19T06:10:46.659Z,11.14
2023-12-19T06:13:14.536Z,11.16
2023-12-19T06:15:42.298Z,11.18
2023-12-19T06:18:10.258Z,11.19
2023-12-19T06:20:38.022Z,11.18
2023-12-19T06:23:05.570Z,11.16
2023-12-19T06:25:34.592Z,11.12
2023-12-19T06:28:02.171Z,11.06
2023-12-19T06:30:33.762Z,11.00
2023-12-19T06:33:03.421Z,10.96
2023-12-19T06:35:32.379Z,10.89
2023-12-19T06:38:00.385Z,10.86
2023-12-19T06:40:28.125Z,10.83
2023-12-19T06:42:56.041Z,10.81
2023-12-19T06:45:23.728Z,10.83
2023-12-19T06:47:51.464Z,10.87
2023-12-19T06:50:20.349Z,10.93
2023-12-19T06:52:48.429Z,10.98
2023-12-19T06:55:16.244Z,11.02
2023-12-19T06:57:44.036Z,11.05
2023-12-19T07:00:12.486Z,11.08
2023-12-19T07:02:40.119Z,11.11
2023-12-19T07:05:07.720Z,11.13
2023-12-19T07:07:35.758Z,11.17
2023-12-19T07:10:05.092Z,11.25
2023-12-19T07:12:32.772Z,11.57
2023-12-19T07:15:01.006Z,12.02
2023-12-19T07:17:28.536Z,12.45
2023-12-19T07:19:56.286Z,12.88
2023-12-19T07:22:24.081Z,13.30
2023-12-19T07:24:51.671Z,13.72
2023-12-19T07:27:19.222Z,14.13
2023-12-19T07:29:46.930Z,14.53
2023-12-19T07:32:14.548Z,14.82
2023-12-19T07:34:42.128Z,15.07
2023-12-19T07:37:11.361Z,15.30
2023-12-19T07:39:38.982Z,15.53
2023-12-19T07:42:06.639Z,15.80
2023-12-19T07:44:34.293Z,16.06
2023-12-19T07:47:01.734Z,16.26
2023-12-19T07:49:29.258Z,16.45
2023-12-19T07:51:58.439Z,16.66
2023-12-19T07:54:26.415Z,16.83
2023-12-19T07:56:54.329Z,16.99
2023-12-19T07:59:23.116Z,17.13
2023-12-19T08:01:51.095Z,17.31
2023-12-19T08:04:19.545Z,17.46
2023-12-19T08:06:49.258Z,17.59
2023-12-19T08:09:17.034Z,17.71
2023-12-19T08:11:45.157Z,17.76
2023-12-19T08:14:13.387Z,17.80
2023-12-19T08:16:41.981Z,17.89
2023-12-19T08:19:09.475Z,18.01
2023-12-19T08:21:59.571Z,18.11
2023-12-19T08:24:27.415Z,18.19
2023-12-19T08:26:55.041Z,18.26
2023-12-19T08:29:23.308Z,18.31
2023-12-19T08:31:50.884Z,18.28
2023-12-19T08:34:20.148Z,18.24
2023-12-19T08:36:47.849Z,18.28
2023-12-19T08:39:15.616Z,18.29
2023-12-19T08:41:48.180Z,18.11
2023-12-19T08:44:15.870Z,17.91
2023-12-19T08:46:43.410Z,17.69
2023-12-19T08:49:12.482Z,17.54
2023-12-19T08:51:48.080Z,17.42
2023-12-19T08:54:16.220Z,17.27
2023-12-19T08:56:44.054Z,17.11
2023-12-19T08:59:12.121Z,16.93
2023-12-19T09:01:42.732Z,16.75
2023-12-19T09:04:10.363Z,16.64
2023-12-19T09:06:38.134Z,16.58
2023-12-19T09:09:06.391Z,16.52
2023-12-19T09:11:35.204Z,16.44
2023-12-19T09:14:02.731Z,16.40
2023-12-19T09:16:34.182Z,16.41
2023-12-19T09:19:02.130Z,16.41
2023-12-19T09:21:30.147Z,16.39
2023-12-19T09:23:57.664Z,16.40
2023-12-19T09:26:25.296Z,16.38
2023-12-19T09:28:53.413Z,16.32
2023-12-19T09:31:21.052Z,16.25
2023-12-19T09:33:50.165Z,16.25
2023-12-19T09:36:28.388Z,16.24
2023-12-19T09:38:55.941Z,16.19
2023-12-19T09:41:25.924Z,16.21
2023-12-19T09:43:53.507Z,16.25
2023-12-19T09:46:21.596Z,16.32
2023-12-19T09:48:51.194Z,16.42
2023-12-19T09:51:39.040Z,16.44
2023-12-19T09:54:06.916Z,16.46
2023-12-19T09:56:36.165Z,16.46
2023-12-19T09:59:09.545Z,16.48
2023-12-19T10:01:39.784Z,16.54
2023-12-19T10:04:15.357Z,16.59
2023-12-19T10:06:56.190Z,16.57
2023-12-19T10:09:24.516Z,16.52
2023-12-19T10:12:14.021Z,16.48
2023-12-19T10:14:41.634Z,16.46
2023-12-19T10:17:19.463Z,16.44
2023-12-19T10:19:47.256Z,16.47
2023-12-19T10:22:21.531Z,16.48
2023-12-19T10:24:48.990Z,16.47
2023-12-19T10:27:23.908Z,16.51
2023-12-19T10:29:52.594Z,16.56
2023-12-19T10:32:23.638Z,16.61
2023-12-19T10:34:58.545Z,16.65
2023-12-19T10:37:39.856Z,16.73
2023-12-19T10:40:12.633Z,16.86
2023-12-19T10:42:40.235Z,16.96
2023-12-19T10:45:10.082Z,17.07
2023-12-19T10:47:37.766Z,17.12
2023-12-19T10:50:07.351Z,17.21
2023-12-19T10:52:38.032Z,17.30
2023-12-19T10:55:14.473Z,17.43
2023-12-19T10:57:50.263Z,17.63
2023-12-19T11:04:00.795Z,18.00
2023-12-19T11:06:38.254Z,18.08
2023-12-19T11:09:09.148Z,18.12
2023-12-19T11:11:39.270Z,18.21
2023-12-19T11:14:06.579Z,18.32
2023-12-19T11:16:33.271Z,18.43
2023-12-19T11:19:09.189Z,18.59
2023-12-19T11:21:57.912Z,18.77
2023-12-19T11:24:54.122Z,18.95
2023-12-19T11:27:27.002Z,19.01
2023-12-19T11:29:57.200Z,19.06
2023-12-19T11:32:30.269Z,19.17
2023-12-19T11:35:09.621Z,19.26
2023-12-19T11:37:37.925Z,19.38
2023-12-19T11:40:06.885Z,19.42
2023-12-19T11:42:40.358Z,19.55
2023-12-19T11:45:19.844Z,19.72
2023-12-19T11:47:51.469Z,19.82
2023-12-19T11:50:40.606Z,19.90
2023-12-19T11:53:08.155Z,19.94
2023-12-19T11:55:35.818Z,20.06
2023-12-19T11:58:13.500Z,20.27
2023-12-19T12:00:43.677Z,20.43
2023-12-19T12:03:14.065Z,20.57
2023-12-19T12:05:41.603Z,20.65
2023-12-19T12:08:15.137Z,20.76
2023-12-19T12:10:44.344Z,20.91
2023-12-19T12:13:11.459Z,20.96
2023-12-19T12:15:38.507Z,20.98
2023-12-19T12:18:06.579Z,21.08
2023-12-19T12:20:35.502Z,21.14
2023-12-19T12:23:03.023Z,21.27
2023-12-19T12:25:32.576Z,21.40
2023-12-19T12:28:11.040Z,21.54
2023-12-19T12:30:39.620Z,21.71
2023-12-19T12:33:08.738Z,21.75
2023-12-19T12:35:38.037Z,21.71
2023-12-19T12:38:07.493Z,21.67
2023-12-19T12:40:34.564Z,21.62
2023-12-19T12:43:28.897Z,21.63
2023-12-19T12:46:10.557Z,21.74
2023-12-19T12:48:40.141Z,21.91
2023-12-19T12:51:07.776Z,21.91
2023-12-19T12:53:35.958Z,21.95
2023-12-19T12:56:15.080Z,21.99
2023-12-19T12:58:43.747Z,22.17
2023-12-19T13:01:11.670Z,22.34
2023-12-19T13:03:38.906Z,22.43
2023-12-19T13:06:06.625Z,22.46
2023-12-19T13:08:35.738Z,22.50
2023-12-19T13:11:03.949Z,22.56
2023-12-19T13:13:31.249Z,22.66
2023-12-19T13:15:58.662Z,22.67
2023-12-19T13:18:25.688Z,22.76
2023-12-19T13:20:53.898Z,22.67
2023-12-19T13:23:21.421Z,22.76
2023-12-19T13:25:50.091Z,22.81
2023-12-19T13:28:19.085Z,22.92
2023-12-19T13:30:46.451Z,23.18
2023-12-19T13:33:15.181Z,23.36
2023-12-19T13:35:43.347Z,23.57
2023-12-19T13:38:10.270Z,23.72
2023-12-19T13:40:38.335Z,23.88
2023-12-19T13:43:06.521Z,23.97
2023-12-19T13:45:35.135Z,24.03
2023-12-19T13:48:05.271Z,24.14
2023-12-19T13:50:32.582Z,24.09
2023-12-19T13:53:00.858Z,24.06
2023-12-19T13:55:27.822Z,24.17
2023-12-19T13:57:54.455Z,24.38
2023-12-19T14:00:29.199Z,24.56
2023-12-19T14:02:59.668Z,24.67
2023-12-19T14:05:28.237Z,24.82
2023-12-19T14:07:56.669Z,24.89
2023-12-19T14:10:24.819Z,24.91
2023-12-19T14:12:52.295Z,24.91
2023-12-19T14:15:20.577Z,24.74
2023-12-19T14:17:48.058Z,24.57
2023-12-19T14:20:19.058Z,24.39
2023-12-19T14:22:46.308Z,24.24
2023-12-19T14:25:13.493Z,24.22
2023-12-19T14:27:40.552Z,24.29
2023-12-19T14:30:10.405Z,24.38
2023-12-19T14:32:39.563Z,24.39
2023-12-19T14:35:09.314Z,24.21
2023-12-19T14:37:36.196Z,24.11
2023-12-19T14:40:04.826Z,23.83
2023-12-19T14:42:32.684Z,23.63
2023-12-19T14:45:00.081Z,23.50
2023-12-19T14:47:29.861Z,23.32
2023-12-19T14:49:57.047Z,23.08
2023-12-19T14:52:24.503Z,22.86
2023-12-19T14:54:51.387Z,22.57
2023-12-19T14:57:18.116Z,22.25
2023-12-19T14:59:45.173Z,21.95
2023-12-19T15:02:11.867Z,21.66
2023-12-19T15:04:38.791Z,21.36
2023-12-19T15:07:06.399Z,21.24
2023-12-19T15:09:34.816Z,21.06
2023-12-19T15:12:04.047Z,20.81
2023-12-19T15:14:31.741Z,20.57
2023-12-19T15:16:59.262Z,20.40
2023-12-19T15:19:26.201Z,20.28
2023-12-19T15:21:53.223Z,20.06
2023-12-19T15:24:20.348Z,19.70
2023-12-19T15:26:47.058Z,19.44
2023-12-19T15:29:15.614Z,19.38
2023-12-19T15:31:44.110Z,19.15
2023-12-19T15:34:12.124Z,18.70
2023-12-19T15:36:39.877Z,18.17
2023-12-19T15:39:07.515Z,17.73
2023-12-19T15:41:34.930Z,17.42
2023-12-19T15:44:08.474Z,17.13
2023-12-19T15:46:42.884Z,16.83
2023-12-19T15:49:12.983Z,16.48
2023-12-19T15:51:39.791Z,16.11
2023-12-19T15:54:07.058Z,15.75
2023-12-19T15:56:34.845Z,15.39
2023-12-19T15:59:07.398Z,15.07
2023-12-19T16:01:34.633Z,14.73
2023-12-19T16:04:01.685Z,14.44
2023-12-19T16:06:29.049Z,14.24
2023-12-19T16:08:56.461Z,14.04
2023-12-19T16:11:25.052Z,13.87
2023-12-19T16:13:53.425Z,13.74
2023-12-19T16:16:20.470Z,13.62
2023-12-19T16:18:48.901Z,13.53
2023-12-19T16:21:22.595Z,13.43
2023-12-19T16:24:00.329Z,13.35
2023-12-19T16:26:34.669Z,13.25
2023-12-19T16:29:02.309Z,13.18
2023-12-19T16:31:29.881Z,13.12
2023-12-19T16:33:57.258Z,13.06
2023-12-19T16:36:24.118Z,13.00
2023-12-19T16:38:52.314Z,12.94
2023-12-19T16:41:22.651Z,12.89
2023-12-19T16:43:51.310Z,12.82
2023-12-19T16:46:20.136Z,12.77
2023-12-19T16:48:47.711Z,12.70
2023-12-19T16:51:15.145Z,12.64
2023-12-19T16:53:42.961Z,12.56
2023-12-19T16:56:15.934Z,12.51
2023-12-19T16:58:45.546Z,12.47
2023-12-19T17:01:16.854Z,12.44
2023-12-19T17:03:45.002Z,12.40
2023-12-19T17:06:12.368Z,12.35
2023-12-19T17:08:39.276Z,12.30
2023-12-19T17:11:07.862Z,12.26
2023-12-19T17:13:35.015Z,12.22
2023-12-19T17:16:02.079Z,12.20
2023-12-19T17:18:29.437Z,12.19
2023-12-19T17:20:56.326Z,12.17
2023-12-19T17:23:24.327Z,12.18
2023-12-19T17:25:53.243Z,12.21
2023-12-19T17:28:20.202Z,12.22
2023-12-19T17:30:48.018Z,12.25
2023-12-19T17:33:15.081Z,12.25
2023-12-19T17:35:41.902Z,12.25
2023-12-19T17:38:08.890Z,12.27
2023-12-19T17:40:35.774Z,12.30
2023-12-19T17:43:02.886Z,12.31
2023-12-19T17:45:30.137Z,12.33
2023-12-19T17:47:57.031Z,12.34
2023-12-19T17:50:23.977Z,12.36
2023-12-19T17:52:50.933Z,12.36
2023-12-19T17:55:18.672Z,12.35
2023-12-19T17:57:46.078Z,12.34
2023-12-19T18:00:14.778Z,12.32
2023-12-19T18:02:41.972Z,12.28
2023-12-19T18:05:09.332Z,12.26
2023-12-19T18:07:37.172Z,12.26
2023-12-19T18:10:04.952Z,12.26
2023-12-19T18:12:33.086Z,12.25
2023-12-19T18:15:00.381Z,12.21
2023-12-19T18:17:28.018Z,12.17
2023-12-19T18:19:56.562Z,12.15
2023-12-19T18:22:24.090Z,12.10
2023-12-19T18:24:51.398Z,12.05
2023-12-19T18:27:18.558Z,11.97
2023-12-19T18:29:46.068Z,11.90
2023-12-19T18:32:14.570Z,11.83
2023-12-19T18:34:46.048Z,11.78
2023-12-19T18:37:14.019Z,11.71
2023-12-19T18:39:41.584Z,11.63
2023-12-19T18:42:11.114Z,11.57
2023-12-19T18:44:39.196Z,11.54
2023-12-19T18:47:06.763Z,11.52
2023-12-19T18:49:34.214Z,11.50
2023-12-19T18:52:01.473Z,11.47
2023-12-19T18:54:28.713Z,11.44
2023-12-19T18:56:56.022Z,11.41
2023-12-19T18:59:25.362Z,11.39
2023-12-19T19:01:52.916Z,11.38
2023-12-19T19:04:20.655Z,11.36
2023-12-19T19:06:48.398Z,11.34
2023-12-19T19:09:15.615Z,11.32
2023-12-19T19:11:46.738Z,11.33
2023-12-19T19:14:15.096Z,11.31
2023-12-19T19:16:42.822Z,11.34
2023-12-19T19:19:10.394Z,11.36
2023-12-19T19:21:38.175Z,11.37
2023-12-19T19:24:06.305Z,11.38
2023-12-19T19:26:33.855Z,11.34
2023-12-19T19:29:01.235Z,11.33
2023-12-19T19:31:29.067Z,11.32
2023-12-19T19:33:56.282Z,11.31
2023-12-19T19:36:26.031Z,11.29
2023-12-19T19:38:53.706Z,11.28
2023-12-19T19:41:22.975Z,11.27
2023-12-19T19:43:53.521Z,11.26
2023-12-19T19:46:21.452Z,11.29
2023-12-19T19:48:49.501Z,11.31
2023-12-19T19:51:16.722Z,11.32
2023-12-19T19:53:43.687Z,11.35
2023-12-19T19:56:11.057Z,11.38
2023-12-19T19:58:38.370Z,11.41
2023-12-19T20:01:05.998Z,11.43
2023-12-19T20:03:33.661Z,11.43
2023-12-19T20:06:01.775Z,11.48
2023-12-19T20:08:31.785Z,11.48
2023-12-19T20:10:59.359Z,11.50
2023-12-19T20:13:26.904Z,11.50
2023-12-19T20:15:54.934Z,11.51
2023-12-19T20:18:22.218Z,11.53
2023-12-19T20:20:49.896Z,11.52
2023-12-19T20:23:17.351Z,11.51
2023-12-19T20:25:45.366Z,11.49
2023-12-19T20:28:12.588Z,11.46
2023-12-19T20:30:39.650Z,11.45
2023-12-19T20:33:07.116Z,11.46
2023-12-19T20:35:34.316Z,11.46
2023-12-19T20:38:02.156Z,11.46
2023-12-19T20:40:32.208Z,11.47
2023-12-19T20:43:00.481Z,11.46
2023-12-19T20:45:27.844Z,11.46
2023-12-19T20:47:55.068Z,11.45
2023-12-19T20:50:22.525Z,11.43
2023-12-19T20:52:56.269Z,11.42
2023-12-19T20:55:26.100Z,11.40
2023-12-19T20:57:53.574Z,11.40
2023-12-19T21:00:22.988Z,11.39
2023-12-19T21:02:51.630Z,11.36
2023-12-19T21:05:20.440Z,11.33
2023-12-19T21:07:49.351Z,11.33
2023-12-19T21:10:17.330Z,11.30
2023-12-19T21:12:45.541Z,11.26
2023-12-19T21:15:13.260Z,11.21
2023-12-19T21:17:40.538Z,11.15
2023-12-19T21:20:08.599Z,11.09
2023-12-19T21:22:35.777Z,11.05
2023-12-19T21:25:03.940Z,11.02
2023-12-19T21:27:31.515Z,10.97
2023-12-19T21:29:58.361Z,10.91
2023-12-19T21:32:25.538Z,10.85
2023-12-19T21:34:52.549Z,10.79
2023-12-19T21:37:20.018Z,10.72
2023-12-19T21:39:46.975Z,10.65
2023-12-19T21:42:14.109Z,10.60
2023-12-19T21:44:41.471Z,10.57
2023-12-19T21:47:08.624Z,10.58
2023-12-19T21:49:38.727Z,10.60
2023-12-19T21:52:06.940Z,10.63
2023-12-19T21:54:34.131Z,10.65
2023-12-19T21:57:04.684Z,10.64
2023-12-19T21:59:32.168Z,10.64
2023-12-19T22:01:59.623Z,10.65
2023-12-19T22:04:27.165Z,10.66
2023-12-19T22:06:54.666Z,10.64
2023-12-19T22:09:23.400Z,10.62
2023-12-19T22:11:50.771Z,10.62
2023-12-19T22:14:18.241Z,10.60
2023-12-19T22:16:45.376Z,10.59
2023-12-19T22:19:14.236Z,10.58
2023-12-19T22:21:41.562Z,10.60
2023-12-19T22:24:08.972Z,10.63
2023-12-19T22:26:40.546Z,10.65
2023-12-19T22:29:08.201Z,10.65
2023-12-19T22:31:38.704Z,10.64
2023-12-19T22:34:06.399Z,10.63
2023-12-19T22:36:33.533Z,10.62
2023-12-19T22:39:01.081Z,10.60
2023-12-19T22:41:28.048Z,10.58
2023-12-19T22:43:55.165Z,10.58
2023-12-19T22:46:22.238Z,10.59
2023-12-19T22:48:50.398Z,10.62
2023-12-19T22:51:17.985Z,10.64
2023-12-19T22:53:45.417Z,10.66
2023-12-19T22:56:21.694Z,10.69
2023-12-19T22:58:49.129Z,10.71
2023-12-19T23:01:25.199Z,10.72
2023-12-19T23:03:52.841Z,10.74
2023-12-19T23:06:22.014Z,10.75
2023-12-19T23:08:49.328Z,10.77
2023-12-19T23:11:16.769Z,10.77
2023-12-19T23:13:44.723Z,10.77
2023-12-19T23:16:15.961Z,10.77
2023-12-19T23:18:43.355Z,10.76
2023-12-19T23:21:13.221Z,10.76
2023-12-19T23:23:40.605Z,10.74
2023-12-19T23:26:09.202Z,10.71
2023-12-19T23:28:36.038Z,10.70
2023-12-19T23:31:03.419Z,10.69
2023-12-19T23:33:30.647Z,10.67
2023-12-19T23:35:57.889Z,10.66
2023-12-19T23:38:24.925Z,10.65
2023-12-19T23:40:51.894Z,10.63
2023-12-19T23:43:19.868Z,10.60
2023-12-19T23:45:49.811Z,10.60
2023-12-19T23:48:18.962Z,10.55
2023-12-19T23:50:46.509Z,10.52
2023-12-19T23:53:13.577Z,10.49
2023-12-19T23:55:40.918Z,10.45
2023-12-19T23:58:10.270Z,10.42
